<?xml version="1.0" encoding="UTF-8" standalone="no" ?>
<gpx xmlns="http://www.topografix.com/GPX/1/1" xmlns:xsi="http://www.w3.org/2001/XMLSchema-instance" xsi:schemaLocation="http://www.topografix.com/GPX/1/1 http://www.topografix.com/GPX/1/1/gpx.xsd" version="1.1" creator="VisuGPX - https://www.visugpx.com">
  <metadata>
    <name>Boucle pédestre Plélan autrefois 2</name>
    <desc><![CDATA[Boucle pédestre de 3,5 km autour de Plélan-le-Grand pour découvrir des particularités historiques allant du moyen-Âge au 19e siècle.]]></desc>
  </metadata>
  <wpt lat="48.00258" lon="-2.11149">
    <ele>98.6</ele>
    <name><![CDATA[La Motte Féodale]]></name>
    <desc><![CDATA[]]></desc>
  </wpt>
  <wpt lat="48.00194" lon="-2.1121">
    <ele>97.5</ele>
    <name><![CDATA[La Minoterie]]></name>
    <desc><![CDATA[]]></desc>
  </wpt>
  <wpt lat="48.00174" lon="-2.11201">
    <ele>99.2</ele>
    <name><![CDATA[Le village du Gué]]></name>
    <desc><![CDATA[]]></desc>
  </wpt>
  <wpt lat="48.00133" lon="-2.10502">
    <ele>123.4</ele>
    <name><![CDATA[La ligne de tramway]]></name>
    <desc><![CDATA[]]></desc>
  </wpt>
  <wpt lat="48.00175" lon="-2.10613">
    <ele>115.9</ele>
    <name><![CDATA[Le lavoir de Béniguet]]></name>
    <desc><![CDATA[]]></desc>
  </wpt>
  <wpt lat="48.00207" lon="-2.10137">
    <ele>136.1</ele>
    <name><![CDATA[Les maisons bourgeoises]]></name>
    <desc><![CDATA[]]></desc>
  </wpt>
  <wpt lat="48.00251" lon="-2.09678">
    <ele>138</ele>
    <name><![CDATA[Les anciennes halles]]></name>
    <desc><![CDATA[]]></desc>
  </wpt>
  <trk>
    <name><![CDATA[Plélan autrefois-21908909]]></name>
    <trkseg>
      <trkpt lat="48.00207" lon="-2.10137">
        <ele>137</ele>
        <time>2025-07-25T20:52:27Z</time>
      </trkpt>
      <trkpt lat="48.00193" lon="-2.10157">
        <ele>137</ele>
        <time>2025-07-25T20:52:43Z</time>
      </trkpt>
      <trkpt lat="48.00185" lon="-2.10219">
        <ele>136</ele>
        <time>2025-07-25T20:53:16Z</time>
      </trkpt>
      <trkpt lat="48.00198" lon="-2.10223">
        <ele>136</ele>
        <time>2025-07-25T20:53:27Z</time>
      </trkpt>
      <trkpt lat="48.00194" lon="-2.10276">
        <ele>134</ele>
        <time>2025-07-25T20:53:56Z</time>
      </trkpt>
      <trkpt lat="48.0022" lon="-2.10285">
        <ele>134</ele>
        <time>2025-07-25T20:54:17Z</time>
      </trkpt>
      <trkpt lat="48.00223" lon="-2.10305">
        <ele>134</ele>
        <time>2025-07-25T20:54:28Z</time>
      </trkpt>
      <trkpt lat="48.00229" lon="-2.10313">
        <ele>133</ele>
        <time>2025-07-25T20:54:34Z</time>
      </trkpt>
      <trkpt lat="48.00227" lon="-2.1032">
        <ele>133</ele>
        <time>2025-07-25T20:54:38Z</time>
      </trkpt>
      <trkpt lat="48.00226" lon="-2.10329">
        <ele>133</ele>
        <time>2025-07-25T20:54:43Z</time>
      </trkpt>
      <trkpt lat="48.0023" lon="-2.10357">
        <ele>132</ele>
        <time>2025-07-25T20:54:59Z</time>
      </trkpt>
      <trkpt lat="48.00231" lon="-2.10369">
        <ele>131</ele>
        <time>2025-07-25T20:55:05Z</time>
      </trkpt>
      <trkpt lat="48.00222" lon="-2.10421">
        <ele>129</ele>
        <time>2025-07-25T20:55:34Z</time>
      </trkpt>
      <trkpt lat="48.00221" lon="-2.10468">
        <ele>127</ele>
        <time>2025-07-25T20:55:59Z</time>
      </trkpt>
      <trkpt lat="48.00218" lon="-2.10477">
        <ele>126</ele>
        <time>2025-07-25T20:56:04Z</time>
      </trkpt>
      <trkpt lat="48.00207" lon="-2.10496">
        <ele>126</ele>
        <time>2025-07-25T20:56:18Z</time>
      </trkpt>
      <trkpt lat="48.00202" lon="-2.10505">
        <ele>125</ele>
        <time>2025-07-25T20:56:24Z</time>
      </trkpt>
      <trkpt lat="48.002" lon="-2.10516">
        <ele>124</ele>
        <time>2025-07-25T20:56:30Z</time>
      </trkpt>
      <trkpt lat="48.00199" lon="-2.10526">
        <ele>123</ele>
        <time>2025-07-25T20:56:36Z</time>
      </trkpt>
      <trkpt lat="48.0021" lon="-2.10527">
        <ele>123</ele>
        <time>2025-07-25T20:56:45Z</time>
      </trkpt>
      <trkpt lat="48.00228" lon="-2.10524">
        <ele>122</ele>
        <time>2025-07-25T20:56:59Z</time>
      </trkpt>
      <trkpt lat="48.00232" lon="-2.10521">
        <ele>123</ele>
        <time>2025-07-25T20:57:03Z</time>
      </trkpt>
      <trkpt lat="48.00244" lon="-2.10514">
        <ele>123</ele>
        <time>2025-07-25T20:57:13Z</time>
      </trkpt>
      <trkpt lat="48.00257" lon="-2.10505">
        <ele>123</ele>
        <time>2025-07-25T20:57:24Z</time>
      </trkpt>
      <trkpt lat="48.00267" lon="-2.10495">
        <ele>123</ele>
        <time>2025-07-25T20:57:34Z</time>
      </trkpt>
      <trkpt lat="48.00273" lon="-2.10494">
        <ele>123</ele>
        <time>2025-07-25T20:57:39Z</time>
      </trkpt>
      <trkpt lat="48.00273" lon="-2.10495">
        <ele>123</ele>
        <time>2025-07-25T20:57:39Z</time>
      </trkpt>
      <trkpt lat="48.00262" lon="-2.10524">
        <ele>121</ele>
        <time>2025-07-25T20:57:57Z</time>
      </trkpt>
      <trkpt lat="48.0026" lon="-2.10534">
        <ele>121</ele>
        <time>2025-07-25T20:58:03Z</time>
      </trkpt>
      <trkpt lat="48.00264" lon="-2.10566">
        <ele>118</ele>
        <time>2025-07-25T20:58:20Z</time>
      </trkpt>
      <trkpt lat="48.00277" lon="-2.10651">
        <ele>113</ele>
        <time>2025-07-25T20:59:07Z</time>
      </trkpt>
      <trkpt lat="48.003" lon="-2.10764">
        <ele>108</ele>
        <time>2025-07-25T21:00:10Z</time>
      </trkpt>
      <trkpt lat="48.00309" lon="-2.10815">
        <ele>106</ele>
        <time>2025-07-25T21:00:39Z</time>
      </trkpt>
      <trkpt lat="48.00296" lon="-2.10828">
        <ele>106</ele>
        <time>2025-07-25T21:00:51Z</time>
      </trkpt>
      <trkpt lat="48.00266" lon="-2.10851">
        <ele>105</ele>
        <time>2025-07-25T21:01:18Z</time>
      </trkpt>
      <trkpt lat="48.00247" lon="-2.10873">
        <ele>105</ele>
        <time>2025-07-25T21:01:37Z</time>
      </trkpt>
      <trkpt lat="48.00237" lon="-2.10905">
        <ele>105</ele>
        <time>2025-07-25T21:01:56Z</time>
      </trkpt>
      <trkpt lat="48.00227" lon="-2.10963">
        <ele>106</ele>
        <time>2025-07-25T21:02:28Z</time>
      </trkpt>
      <trkpt lat="48.00206" lon="-2.11048">
        <ele>106</ele>
        <time>2025-07-25T21:03:17Z</time>
      </trkpt>
      <trkpt lat="48.00198" lon="-2.11093">
        <ele>105</ele>
        <time>2025-07-25T21:03:42Z</time>
      </trkpt>
      <trkpt lat="48.00188" lon="-2.11123">
        <ele>104</ele>
        <time>2025-07-25T21:04:00Z</time>
      </trkpt>
      <trkpt lat="48.00185" lon="-2.11149">
        <ele>103</ele>
        <time>2025-07-25T21:04:14Z</time>
      </trkpt>
      <trkpt lat="48.00181" lon="-2.11169">
        <ele>102</ele>
        <time>2025-07-25T21:04:25Z</time>
      </trkpt>
      <trkpt lat="48.00184" lon="-2.1117">
        <ele>101</ele>
        <time>2025-07-25T21:04:28Z</time>
      </trkpt>
      <trkpt lat="48.002" lon="-2.11174">
        <ele>101</ele>
        <time>2025-07-25T21:04:41Z</time>
      </trkpt>
      <trkpt lat="48.00244" lon="-2.11192">
        <ele>100</ele>
        <time>2025-07-25T21:05:17Z</time>
      </trkpt>
      <trkpt lat="48.00244" lon="-2.11192">
        <ele>100</ele>
        <time>2025-07-25T21:05:17Z</time>
      </trkpt>
      <trkpt lat="48.00246" lon="-2.11193">
        <ele>99</ele>
        <time>2025-07-25T21:05:19Z</time>
      </trkpt>
      <trkpt lat="48.00254" lon="-2.11159">
        <ele>100</ele>
        <time>2025-07-25T21:05:38Z</time>
      </trkpt>
      <trkpt lat="48.00258" lon="-2.11148">
        <ele>101</ele>
        <time>2025-07-25T21:05:45Z</time>
      </trkpt>
      <trkpt lat="48.00254" lon="-2.11159">
        <ele>100</ele>
        <time>2025-07-25T21:05:52Z</time>
      </trkpt>
      <trkpt lat="48.00246" lon="-2.11193">
        <ele>99</ele>
        <time>2025-07-25T21:06:11Z</time>
      </trkpt>
      <trkpt lat="48.00244" lon="-2.11192">
        <ele>100</ele>
        <time>2025-07-25T21:06:13Z</time>
      </trkpt>
      <trkpt lat="48.00244" lon="-2.11192">
        <ele>100</ele>
        <time>2025-07-25T21:06:13Z</time>
      </trkpt>
      <trkpt lat="48.00194" lon="-2.11211">
        <ele>100</ele>
        <time>2025-07-25T21:06:54Z</time>
      </trkpt>
      <trkpt lat="48.00171" lon="-2.11198">
        <ele>101</ele>
        <time>2025-07-25T21:07:14Z</time>
      </trkpt>
      <trkpt lat="48.0017" lon="-2.11201">
        <ele>101</ele>
        <time>2025-07-25T21:07:15Z</time>
      </trkpt>
      <trkpt lat="48.00152" lon="-2.11245">
        <ele>100</ele>
        <time>2025-07-25T21:07:43Z</time>
      </trkpt>
      <trkpt lat="48.00149" lon="-2.11247">
        <ele>100</ele>
        <time>2025-07-25T21:07:46Z</time>
      </trkpt>
      <trkpt lat="48.00145" lon="-2.1125">
        <ele>101</ele>
        <time>2025-07-25T21:07:49Z</time>
      </trkpt>
      <trkpt lat="48.00126" lon="-2.11259">
        <ele>102</ele>
        <time>2025-07-25T21:08:05Z</time>
      </trkpt>
      <trkpt lat="48.00101" lon="-2.11289">
        <ele>102</ele>
        <time>2025-07-25T21:08:31Z</time>
      </trkpt>
      <trkpt lat="48.00055" lon="-2.11336">
        <ele>103</ele>
        <time>2025-07-25T21:09:15Z</time>
      </trkpt>
      <trkpt lat="48.00024" lon="-2.1137">
        <ele>104</ele>
        <time>2025-07-25T21:09:46Z</time>
      </trkpt>
      <trkpt lat="47.9996" lon="-2.1144">
        <ele>105</ele>
        <time>2025-07-25T21:10:50Z</time>
      </trkpt>
      <trkpt lat="47.99948" lon="-2.11438">
        <ele>107</ele>
        <time>2025-07-25T21:10:59Z</time>
      </trkpt>
      <trkpt lat="47.99925" lon="-2.11425">
        <ele>110</ele>
        <time>2025-07-25T21:11:19Z</time>
      </trkpt>
      <trkpt lat="47.99848" lon="-2.11398">
        <ele>112</ele>
        <time>2025-07-25T21:12:22Z</time>
      </trkpt>
      <trkpt lat="47.99763" lon="-2.11366">
        <ele>115</ele>
        <time>2025-07-25T21:13:33Z</time>
      </trkpt>
      <trkpt lat="47.99709" lon="-2.1134">
        <ele>118</ele>
        <time>2025-07-25T21:14:18Z</time>
      </trkpt>
      <trkpt lat="47.99753" lon="-2.11255">
        <ele>120</ele>
        <time>2025-07-25T21:15:16Z</time>
      </trkpt>
      <trkpt lat="47.99785" lon="-2.11173">
        <ele>122</ele>
        <time>2025-07-25T21:16:07Z</time>
      </trkpt>
      <trkpt lat="47.9979" lon="-2.1116">
        <ele>122</ele>
        <time>2025-07-25T21:16:15Z</time>
      </trkpt>
      <trkpt lat="47.99793" lon="-2.11143">
        <ele>123</ele>
        <time>2025-07-25T21:16:24Z</time>
      </trkpt>
      <trkpt lat="47.99797" lon="-2.11093">
        <ele>125</ele>
        <time>2025-07-25T21:16:51Z</time>
      </trkpt>
      <trkpt lat="47.99801" lon="-2.11064">
        <ele>126</ele>
        <time>2025-07-25T21:17:07Z</time>
      </trkpt>
      <trkpt lat="47.99804" lon="-2.11044">
        <ele>127</ele>
        <time>2025-07-25T21:17:18Z</time>
      </trkpt>
      <trkpt lat="47.99809" lon="-2.1102">
        <ele>127</ele>
        <time>2025-07-25T21:17:31Z</time>
      </trkpt>
      <trkpt lat="47.99821" lon="-2.10986">
        <ele>128</ele>
        <time>2025-07-25T21:17:52Z</time>
      </trkpt>
      <trkpt lat="47.99823" lon="-2.10975">
        <ele>128</ele>
        <time>2025-07-25T21:17:58Z</time>
      </trkpt>
      <trkpt lat="47.99822" lon="-2.10967">
        <ele>128</ele>
        <time>2025-07-25T21:18:02Z</time>
      </trkpt>
      <trkpt lat="47.99821" lon="-2.10957">
        <ele>128</ele>
        <time>2025-07-25T21:18:08Z</time>
      </trkpt>
      <trkpt lat="47.99828" lon="-2.10937">
        <ele>128</ele>
        <time>2025-07-25T21:18:20Z</time>
      </trkpt>
      <trkpt lat="47.99845" lon="-2.10936">
        <ele>128</ele>
        <time>2025-07-25T21:18:33Z</time>
      </trkpt>
      <trkpt lat="47.99849" lon="-2.10931">
        <ele>127</ele>
        <time>2025-07-25T21:18:38Z</time>
      </trkpt>
      <trkpt lat="47.99875" lon="-2.10856">
        <ele>128</ele>
        <time>2025-07-25T21:19:23Z</time>
      </trkpt>
      <trkpt lat="47.99921" lon="-2.10721">
        <ele>128</ele>
        <time>2025-07-25T21:20:44Z</time>
      </trkpt>
      <trkpt lat="47.99935" lon="-2.1073">
        <ele>127</ele>
        <time>2025-07-25T21:20:56Z</time>
      </trkpt>
      <trkpt lat="47.9995" lon="-2.10731">
        <ele>126</ele>
        <time>2025-07-25T21:21:08Z</time>
      </trkpt>
      <trkpt lat="47.99951" lon="-2.10739">
        <ele>126</ele>
        <time>2025-07-25T21:21:13Z</time>
      </trkpt>
      <trkpt lat="47.99959" lon="-2.10756">
        <ele>125</ele>
        <time>2025-07-25T21:21:24Z</time>
      </trkpt>
      <trkpt lat="47.99961" lon="-2.10761">
        <ele>125</ele>
        <time>2025-07-25T21:21:27Z</time>
      </trkpt>
      <trkpt lat="47.99967" lon="-2.10777">
        <ele>125</ele>
        <time>2025-07-25T21:21:37Z</time>
      </trkpt>
      <trkpt lat="47.99975" lon="-2.10792">
        <ele>124</ele>
        <time>2025-07-25T21:21:47Z</time>
      </trkpt>
      <trkpt lat="47.99987" lon="-2.10801">
        <ele>124</ele>
        <time>2025-07-25T21:21:58Z</time>
      </trkpt>
      <trkpt lat="47.99998" lon="-2.10799">
        <ele>123</ele>
        <time>2025-07-25T21:22:07Z</time>
      </trkpt>
      <trkpt lat="48.00007" lon="-2.10791">
        <ele>123</ele>
        <time>2025-07-25T21:22:15Z</time>
      </trkpt>
      <trkpt lat="48.00038" lon="-2.10732">
        <ele>122</ele>
        <time>2025-07-25T21:22:55Z</time>
      </trkpt>
      <trkpt lat="48.0005" lon="-2.10706">
        <ele>121</ele>
        <time>2025-07-25T21:23:12Z</time>
      </trkpt>
      <trkpt lat="48.00049" lon="-2.10702">
        <ele>121</ele>
        <time>2025-07-25T21:23:14Z</time>
      </trkpt>
      <trkpt lat="48.00055" lon="-2.10691">
        <ele>121</ele>
        <time>2025-07-25T21:23:22Z</time>
      </trkpt>
      <trkpt lat="48.00059" lon="-2.10687">
        <ele>121</ele>
        <time>2025-07-25T21:23:26Z</time>
      </trkpt>
      <trkpt lat="48.00064" lon="-2.10686">
        <ele>120</ele>
        <time>2025-07-25T21:23:30Z</time>
      </trkpt>
      <trkpt lat="48.00079" lon="-2.10686">
        <ele>119</ele>
        <time>2025-07-25T21:23:42Z</time>
      </trkpt>
      <trkpt lat="48.00083" lon="-2.10685">
        <ele>119</ele>
        <time>2025-07-25T21:23:45Z</time>
      </trkpt>
      <trkpt lat="48.00099" lon="-2.10673">
        <ele>118</ele>
        <time>2025-07-25T21:23:59Z</time>
      </trkpt>
      <trkpt lat="48.00091" lon="-2.10647">
        <ele>119</ele>
        <time>2025-07-25T21:24:15Z</time>
      </trkpt>
      <trkpt lat="48.001" lon="-2.10632">
        <ele>119</ele>
        <time>2025-07-25T21:24:26Z</time>
      </trkpt>
      <trkpt lat="48.00111" lon="-2.10611">
        <ele>119</ele>
        <time>2025-07-25T21:24:40Z</time>
      </trkpt>
      <trkpt lat="48.00152" lon="-2.10648">
        <ele>116</ele>
        <time>2025-07-25T21:25:18Z</time>
      </trkpt>
      <trkpt lat="48.00174" lon="-2.10613">
        <ele>116</ele>
        <time>2025-07-25T21:25:44Z</time>
      </trkpt>
      <trkpt lat="48.00182" lon="-2.106">
        <ele>116</ele>
        <time>2025-07-25T21:25:53Z</time>
      </trkpt>
      <trkpt lat="48.00201" lon="-2.10562">
        <ele>119</ele>
        <time>2025-07-25T21:26:19Z</time>
      </trkpt>
      <trkpt lat="48.00196" lon="-2.10538">
        <ele>122</ele>
        <time>2025-07-25T21:26:32Z</time>
      </trkpt>
      <trkpt lat="48.00199" lon="-2.10526">
        <ele>123</ele>
        <time>2025-07-25T21:26:39Z</time>
      </trkpt>
      <trkpt lat="48.00189" lon="-2.10525">
        <ele>123</ele>
        <time>2025-07-25T21:26:47Z</time>
      </trkpt>
      <trkpt lat="48.00189" lon="-2.10525">
        <ele>123</ele>
        <time>2025-07-25T21:26:47Z</time>
      </trkpt>
      <trkpt lat="48.00132" lon="-2.10502">
        <ele>126</ele>
        <time>2025-07-25T21:27:34Z</time>
      </trkpt>
      <trkpt lat="48.00067" lon="-2.10476">
        <ele>127</ele>
        <time>2025-07-25T21:28:28Z</time>
      </trkpt>
      <trkpt lat="48.00026" lon="-2.10475">
        <ele>128</ele>
        <time>2025-07-25T21:29:01Z</time>
      </trkpt>
      <trkpt lat="48.00026" lon="-2.10475">
        <ele>128</ele>
        <time>2025-07-25T21:29:01Z</time>
      </trkpt>
      <trkpt lat="48.00019" lon="-2.10478">
        <ele>128</ele>
        <time>2025-07-25T21:29:07Z</time>
      </trkpt>
      <trkpt lat="48.00009" lon="-2.10483">
        <ele>128</ele>
        <time>2025-07-25T21:29:15Z</time>
      </trkpt>
      <trkpt lat="48.00017" lon="-2.10468">
        <ele>129</ele>
        <time>2025-07-25T21:29:26Z</time>
      </trkpt>
      <trkpt lat="48.00083" lon="-2.10353">
        <ele>132</ele>
        <time>2025-07-25T21:30:47Z</time>
      </trkpt>
      <trkpt lat="48.00129" lon="-2.10273">
        <ele>134</ele>
        <time>2025-07-25T21:31:43Z</time>
      </trkpt>
      <trkpt lat="48.00146" lon="-2.10243">
        <ele>135</ele>
        <time>2025-07-25T21:32:04Z</time>
      </trkpt>
      <trkpt lat="48.00164" lon="-2.10214">
        <ele>136</ele>
        <time>2025-07-25T21:32:26Z</time>
      </trkpt>
      <trkpt lat="48.0017" lon="-2.10197">
        <ele>136</ele>
        <time>2025-07-25T21:32:36Z</time>
      </trkpt>
      <trkpt lat="48.00176" lon="-2.10174">
        <ele>137</ele>
        <time>2025-07-25T21:32:49Z</time>
      </trkpt>
      <trkpt lat="48.00188" lon="-2.10118">
        <ele>137</ele>
        <time>2025-07-25T21:33:21Z</time>
      </trkpt>
      <trkpt lat="48.00189" lon="-2.10107">
        <ele>137</ele>
        <time>2025-07-25T21:33:27Z</time>
      </trkpt>
      <trkpt lat="48.00189" lon="-2.10076">
        <ele>137</ele>
        <time>2025-07-25T21:33:43Z</time>
      </trkpt>
      <trkpt lat="48.00185" lon="-2.10008">
        <ele>137</ele>
        <time>2025-07-25T21:34:20Z</time>
      </trkpt>
      <trkpt lat="48.00182" lon="-2.09936">
        <ele>138</ele>
        <time>2025-07-25T21:34:58Z</time>
      </trkpt>
      <trkpt lat="48.00174" lon="-2.09939">
        <ele>138</ele>
        <time>2025-07-25T21:35:05Z</time>
      </trkpt>
      <trkpt lat="48.00197" lon="-2.09837">
        <ele>138</ele>
        <time>2025-07-25T21:36:03Z</time>
      </trkpt>
      <trkpt lat="48.00249" lon="-2.09701">
        <ele>138</ele>
        <time>2025-07-25T21:37:27Z</time>
      </trkpt>
      <trkpt lat="48.00244" lon="-2.09697">
        <ele>138</ele>
        <time>2025-07-25T21:37:31Z</time>
      </trkpt>
      <trkpt lat="48.00252" lon="-2.09676">
        <ele>138</ele>
        <time>2025-07-25T21:37:44Z</time>
      </trkpt>
    </trkseg>
  </trk>
</gpx>